sensor_id;sensor_type;location;lat;lon;timestamp;P1;durP1;ratioP1;P2;durP2;ratioP2
15340;SDS011;7770;52.158;5.372;2023-06-14T00:00:57;8.40;;;5.60;;
15340;SDS011;7770;52.158;5.372;2023-06-14T00:03:44;7.33;;;5.80;;
15340;SDS011;7770;52.158;5.372;2023-06-14T00:06:30;10.33;;;5.27;;
15340;SDS011;7770;52.158;5.372;2023-06-14T00:09:16;7.63;;;5.63;;
15340;SDS011;7770;52.158;5.372;2023-06-14T00:12:03;7.30;;;5.00;;
15340;SDS011;7770;52.158;5.372;2023-06-14T00:14:49;5.80;;;5.20;;
15340;SDS011;7770;52.158;5.372;2023-06-14T00:17:35;8.37;;;4.93;;
15340;SDS011;7770;52.158;5.372;2023-06-14T00:20:24;10.00;;;5.13;;
15340;SDS011;7770;52.158;5.372;2023-06-14T00:23:11;10.10;;;5.37;;
15340;SDS011;7770;52.158;5.372;2023-06-14T00:25:57;6.80;;;5.07;;
15340;SDS011;7770;52.158;5.372;2023-06-14T00:28:43;9.10;;;5.40;;
15340;SDS011;7770;52.158;5.372;2023-06-14T00:31:29;6.53;;;5.00;;
15340;SDS011;7770;52.158;5.372;2023-06-14T00:34:15;11.30;;;5.33;;
15340;SDS011;7770;52.158;5.372;2023-06-14T00:37:01;7.33;;;5.17;;
15340;SDS011;7770;52.158;5.372;2023-06-14T00:39:47;8.53;;;4.70;;
15340;SDS011;7770;52.158;5.372;2023-06-14T00:42:33;6.57;;;5.10;;
15340;SDS011;7770;52.158;5.372;2023-06-14T00:45:19;8.30;;;4.87;;
15340;SDS011;7770;52.158;5.372;2023-06-14T00:48:05;7.43;;;4.90;;
15340;SDS011;7770;52.158;5.372;2023-06-14T00:50:52;11.00;;;5.50;;
15340;SDS011;7770;52.158;5.372;2023-06-14T00:53:39;9.03;;;5.20;;
15340;SDS011;7770;52.158;5.372;2023-06-14T00:56:26;7.50;;;4.73;;
15340;SDS011;7770;52.158;5.372;2023-06-14T00:59:13;10.43;;;4.67;;
15340;SDS011;7770;52.158;5.372;2023-06-14T01:02:00;7.13;;;4.97;;
15340;SDS011;7770;52.158;5.372;2023-06-14T01:04:47;8.30;;;4.87;;
15340;SDS011;7770;52.158;5.372;2023-06-14T01:13:57;9.07;;;4.87;;
15340;SDS011;7770;52.158;5.372;2023-06-14T01:16:48;7.00;;;4.80;;
15340;SDS011;7770;52.158;5.372;2023-06-14T01:19:38;9.87;;;4.77;;
15340;SDS011;7770;52.158;5.372;2023-06-14T01:22:27;7.57;;;5.10;;
15340;SDS011;7770;52.158;5.372;2023-06-14T01:25:14;9.37;;;4.70;;
15340;SDS011;7770;52.158;5.372;2023-06-14T01:28:03;8.97;;;5.00;;
15340;SDS011;7770;52.158;5.372;2023-06-14T01:30:55;7.87;;;4.90;;
15340;SDS011;7770;52.158;5.372;2023-06-14T01:33:41;6.57;;;4.37;;
15340;SDS011;7770;52.158;5.372;2023-06-14T01:36:28;12.03;;;4.73;;
15340;SDS011;7770;52.158;5.372;2023-06-14T01:39:15;6.57;;;4.93;;
15340;SDS011;7770;52.158;5.372;2023-06-14T01:42:01;11.37;;;5.30;;
15340;SDS011;7770;52.158;5.372;2023-06-14T01:44:48;7.30;;;4.80;;
15340;SDS011;7770;52.158;5.372;2023-06-14T01:47:34;7.07;;;4.83;;
15340;SDS011;7770;52.158;5.372;2023-06-14T01:50:21;11.37;;;5.03;;
15340;SDS011;7770;52.158;5.372;2023-06-14T01:53:07;6.47;;;4.87;;
15340;SDS011;7770;52.158;5.372;2023-06-14T01:55:55;5.60;;;4.90;;
15340;SDS011;7770;52.158;5.372;2023-06-14T01:58:41;8.17;;;4.87;;
15340;SDS011;7770;52.158;5.372;2023-06-14T02:01:27;10.43;;;4.90;;
15340;SDS011;7770;52.158;5.372;2023-06-14T02:04:13;9.87;;;5.17;;
15340;SDS011;7770;52.158;5.372;2023-06-14T02:06:59;6.97;;;4.63;;
15340;SDS011;7770;52.158;5.372;2023-06-14T02:09:45;8.27;;;4.90;;
15340;SDS011;7770;52.158;5.372;2023-06-14T02:12:31;8.73;;;5.10;;
15340;SDS011;7770;52.158;5.372;2023-06-14T02:15:17;9.27;;;4.80;;
15340;SDS011;7770;52.158;5.372;2023-06-14T02:18:04;6.07;;;4.70;;
15340;SDS011;7770;52.158;5.372;2023-06-14T02:20:50;10.67;;;5.00;;
15340;SDS011;7770;52.158;5.372;2023-06-14T02:23:37;9.70;;;4.70;;
15340;SDS011;7770;52.158;5.372;2023-06-14T02:26:23;8.70;;;4.73;;
15340;SDS011;7770;52.158;5.372;2023-06-14T02:29:09;5.83;;;4.93;;
15340;SDS011;7770;52.158;5.372;2023-06-14T02:31:57;10.03;;;5.10;;
15340;SDS011;7770;52.158;5.372;2023-06-14T02:34:43;9.23;;;5.33;;
15340;SDS011;7770;52.158;5.372;2023-06-14T02:37:29;6.63;;;4.87;;
15340;SDS011;7770;52.158;5.372;2023-06-14T02:40:15;7.63;;;5.20;;
15340;SDS011;7770;52.158;5.372;2023-06-14T02:43:01;12.03;;;4.90;;
15340;SDS011;7770;52.158;5.372;2023-06-14T02:45:47;9.27;;;4.93;;
15340;SDS011;7770;52.158;5.372;2023-06-14T02:48:33;8.40;;;4.83;;
15340;SDS011;7770;52.158;5.372;2023-06-14T02:51:19;6.80;;;4.77;;
15340;SDS011;7770;52.158;5.372;2023-06-14T02:54:05;12.50;;;5.07;;
15340;SDS011;7770;52.158;5.372;2023-06-14T02:56:51;5.57;;;5.00;;
15340;SDS011;7770;52.158;5.372;2023-06-14T02:59:37;7.70;;;4.50;;
15340;SDS011;7770;52.158;5.372;2023-06-14T03:02:23;6.83;;;4.53;;
15340;SDS011;7770;52.158;5.372;2023-06-14T03:05:09;6.30;;;5.07;;
15340;SDS011;7770;52.158;5.372;2023-06-14T03:07:55;7.37;;;5.27;;
15340;SDS011;7770;52.158;5.372;2023-06-14T03:10:42;7.97;;;4.80;;
15340;SDS011;7770;52.158;5.372;2023-06-14T03:13:28;7.37;;;4.90;;
15340;SDS011;7770;52.158;5.372;2023-06-14T03:16:17;7.67;;;5.03;;
15340;SDS011;7770;52.158;5.372;2023-06-14T03:19:04;6.57;;;4.70;;
15340;SDS011;7770;52.158;5.372;2023-06-14T03:21:51;7.27;;;5.13;;
15340;SDS011;7770;52.158;5.372;2023-06-14T03:24:38;9.53;;;5.07;;
15340;SDS011;7770;52.158;5.372;2023-06-14T03:27:24;8.07;;;5.10;;
15340;SDS011;7770;52.158;5.372;2023-06-14T03:30:11;8.20;;;4.57;;
15340;SDS011;7770;52.158;5.372;2023-06-14T03:32:57;5.83;;;4.93;;
15340;SDS011;7770;52.158;5.372;2023-06-14T03:35:46;8.47;;;4.73;;
15340;SDS011;7770;52.158;5.372;2023-06-14T03:38:32;5.90;;;5.00;;
15340;SDS011;7770;52.158;5.372;2023-06-14T03:41:18;8.30;;;4.57;;
15340;SDS011;7770;52.158;5.372;2023-06-14T03:44:04;6.77;;;4.63;;
15340;SDS011;7770;52.158;5.372;2023-06-14T03:46:50;7.93;;;5.17;;
15340;SDS011;7770;52.158;5.372;2023-06-14T03:49:36;11.17;;;5.00;;
15340;SDS011;7770;52.158;5.372;2023-06-14T03:52:22;7.27;;;4.63;;
15340;SDS011;7770;52.158;5.372;2023-06-14T03:55:09;6.40;;;4.53;;
15340;SDS011;7770;52.158;5.372;2023-06-14T03:57:55;6.57;;;4.77;;
15340;SDS011;7770;52.158;5.372;2023-06-14T04:00:42;8.50;;;4.70;;
15340;SDS011;7770;52.158;5.372;2023-06-14T04:03:28;8.13;;;5.30;;
15340;SDS011;7770;52.158;5.372;2023-06-14T04:06:14;6.87;;;5.10;;
15340;SDS011;7770;52.158;5.372;2023-06-14T04:09:04;7.30;;;4.93;;
15340;SDS011;7770;52.158;5.372;2023-06-14T04:11:51;13.43;;;5.17;;
15340;SDS011;7770;52.158;5.372;2023-06-14T04:14:38;7.50;;;5.17;;
15340;SDS011;7770;52.158;5.372;2023-06-14T04:17:25;6.47;;;5.00;;
15340;SDS011;7770;52.158;5.372;2023-06-14T04:20:11;11.27;;;5.10;;
15340;SDS011;7770;52.158;5.372;2023-06-14T04:23:10;6.13;;;4.73;;
15340;SDS011;7770;52.158;5.372;2023-06-14T04:26:03;10.10;;;4.87;;
15340;SDS011;7770;52.158;5.372;2023-06-14T04:28:50;5.63;;;4.90;;
15340;SDS011;7770;52.158;5.372;2023-06-14T04:31:36;7.90;;;4.80;;
15340;SDS011;7770;52.158;5.372;2023-06-14T04:34:25;10.00;;;4.90;;
15340;SDS011;7770;52.158;5.372;2023-06-14T04:37:14;6.60;;;5.10;;
15340;SDS011;7770;52.158;5.372;2023-06-14T04:40:00;8.73;;;4.70;;
15340;SDS011;7770;52.158;5.372;2023-06-14T04:42:50;11.17;;;5.50;;
15340;SDS011;7770;52.158;5.372;2023-06-14T04:45:36;8.53;;;5.10;;
15340;SDS011;7770;52.158;5.372;2023-06-14T04:48:22;11.27;;;5.17;;
15340;SDS011;7770;52.158;5.372;2023-06-14T04:51:09;9.47;;;5.10;;
15340;SDS011;7770;52.158;5.372;2023-06-14T04:53:57;7.20;;;5.03;;
15340;SDS011;7770;52.158;5.372;2023-06-14T04:56:44;8.00;;;5.20;;
15340;SDS011;7770;52.158;5.372;2023-06-14T04:59:31;9.20;;;5.43;;
15340;SDS011;7770;52.158;5.372;2023-06-14T05:02:18;7.27;;;5.23;;
15340;SDS011;7770;52.158;5.372;2023-06-14T05:05:04;7.67;;;5.00;;
15340;SDS011;7770;52.158;5.372;2023-06-14T05:07:53;6.67;;;5.30;;
15340;SDS011;7770;52.158;5.372;2023-06-14T05:10:39;7.73;;;5.40;;
15340;SDS011;7770;52.158;5.372;2023-06-14T05:13:25;8.83;;;4.93;;
15340;SDS011;7770;52.158;5.372;2023-06-14T05:16:13;9.50;;;4.80;;
15340;SDS011;7770;52.158;5.372;2023-06-14T05:19:01;7.97;;;4.77;;
15340;SDS011;7770;52.158;5.372;2023-06-14T05:21:48;8.47;;;5.27;;
15340;SDS011;7770;52.158;5.372;2023-06-14T05:24:34;8.37;;;5.63;;
15340;SDS011;7770;52.158;5.372;2023-06-14T05:27:20;6.27;;;5.10;;
15340;SDS011;7770;52.158;5.372;2023-06-14T05:30:06;5.70;;;5.10;;
15340;SDS011;7770;52.158;5.372;2023-06-14T05:32:53;7.07;;;5.10;;
15340;SDS011;7770;52.158;5.372;2023-06-14T05:35:40;9.53;;;5.20;;
15340;SDS011;7770;52.158;5.372;2023-06-14T05:38:26;7.90;;;4.67;;
15340;SDS011;7770;52.158;5.372;2023-06-14T05:41:12;9.37;;;5.27;;
15340;SDS011;7770;52.158;5.372;2023-06-14T05:43:58;5.63;;;4.87;;
15340;SDS011;7770;52.158;5.372;2023-06-14T05:46:45;7.60;;;5.20;;
15340;SDS011;7770;52.158;5.372;2023-06-14T05:49:31;6.10;;;4.80;;
15340;SDS011;7770;52.158;5.372;2023-06-14T05:52:17;7.73;;;5.33;;
15340;SDS011;7770;52.158;5.372;2023-06-14T05:55:04;9.00;;;5.33;;
15340;SDS011;7770;52.158;5.372;2023-06-14T05:57:51;7.23;;;5.13;;
15340;SDS011;7770;52.158;5.372;2023-06-14T06:00:37;6.43;;;4.87;;
15340;SDS011;7770;52.158;5.372;2023-06-14T06:03:23;7.73;;;4.83;;
15340;SDS011;7770;52.158;5.372;2023-06-14T06:06:09;6.97;;;5.17;;
15340;SDS011;7770;52.158;5.372;2023-06-14T06:08:55;11.30;;;5.60;;
15340;SDS011;7770;52.158;5.372;2023-06-14T06:11:42;7.10;;;5.33;;
15340;SDS011;7770;52.158;5.372;2023-06-14T06:14:28;8.27;;;5.30;;
15340;SDS011;7770;52.158;5.372;2023-06-14T06:17:14;8.20;;;5.00;;
15340;SDS011;7770;52.158;5.372;2023-06-14T06:20:00;6.83;;;5.33;;
15340;SDS011;7770;52.158;5.372;2023-06-14T06:22:46;6.27;;;5.20;;
15340;SDS011;7770;52.158;5.372;2023-06-14T06:25:32;5.73;;;5.10;;
15340;SDS011;7770;52.158;5.372;2023-06-14T06:28:18;8.13;;;5.57;;
15340;SDS011;7770;52.158;5.372;2023-06-14T06:31:04;10.53;;;5.80;;
15340;SDS011;7770;52.158;5.372;2023-06-14T06:33:50;7.50;;;5.30;;
15340;SDS011;7770;52.158;5.372;2023-06-14T06:36:36;7.20;;;5.37;;
15340;SDS011;7770;52.158;5.372;2023-06-14T06:39:22;7.03;;;5.37;;
15340;SDS011;7770;52.158;5.372;2023-06-14T06:42:08;9.93;;;5.83;;
15340;SDS011;7770;52.158;5.372;2023-06-14T06:44:54;10.30;;;5.47;;
15340;SDS011;7770;52.158;5.372;2023-06-14T06:47:40;7.60;;;5.30;;
15340;SDS011;7770;52.158;5.372;2023-06-14T06:50:26;10.33;;;5.67;;
15340;SDS011;7770;52.158;5.372;2023-06-14T06:53:12;7.87;;;5.33;;
15340;SDS011;7770;52.158;5.372;2023-06-14T06:55:58;7.40;;;5.40;;
15340;SDS011;7770;52.158;5.372;2023-06-14T06:58:44;6.03;;;5.40;;
15340;SDS011;7770;52.158;5.372;2023-06-14T07:01:30;5.83;;;5.17;;
15340;SDS011;7770;52.158;5.372;2023-06-14T07:04:19;7.60;;;5.20;;
15340;SDS011;7770;52.158;5.372;2023-06-14T07:07:05;6.37;;;5.30;;
15340;SDS011;7770;52.158;5.372;2023-06-14T07:09:51;8.00;;;4.90;;
15340;SDS011;7770;52.158;5.372;2023-06-14T07:12:37;8.10;;;5.07;;
15340;SDS011;7770;52.158;5.372;2023-06-14T07:15:24;8.30;;;5.10;;
15340;SDS011;7770;52.158;5.372;2023-06-14T07:18:11;7.90;;;5.60;;
15340;SDS011;7770;52.158;5.372;2023-06-14T07:20:57;6.37;;;5.13;;
15340;SDS011;7770;52.158;5.372;2023-06-14T07:23:43;10.15;;;5.18;;
15340;SDS011;7770;52.158;5.372;2023-06-14T07:26:29;9.05;;;5.10;;
15340;SDS011;7770;52.158;5.372;2023-06-14T07:29:15;5.72;;;4.60;;
15340;SDS011;7770;52.158;5.372;2023-06-14T07:32:01;6.13;;;4.40;;
15340;SDS011;7770;52.158;5.372;2023-06-14T07:34:48;8.23;;;4.82;;
15340;SDS011;7770;52.158;5.372;2023-06-14T07:37:34;6.05;;;4.47;;
15340;SDS011;7770;52.158;5.372;2023-06-14T07:40:20;7.95;;;4.57;;
15340;SDS011;7770;52.158;5.372;2023-06-14T07:43:06;4.70;;;4.22;;
15340;SDS011;7770;52.158;5.372;2023-06-14T07:45:52;7.18;;;4.22;;
15340;SDS011;7770;52.158;5.372;2023-06-14T07:48:38;5.13;;;4.43;;
15340;SDS011;7770;52.158;5.372;2023-06-14T07:51:24;6.75;;;4.55;;
15340;SDS011;7770;52.158;5.372;2023-06-14T07:54:10;6.63;;;4.30;;
15340;SDS011;7770;52.158;5.372;2023-06-14T07:56:56;6.90;;;4.00;;
15340;SDS011;7770;52.158;5.372;2023-06-14T07:59:46;5.07;;;4.05;;
15340;SDS011;7770;52.158;5.372;2023-06-14T08:02:32;7.68;;;3.92;;
15340;SDS011;7770;52.158;5.372;2023-06-14T08:05:18;5.32;;;3.97;;
15340;SDS011;7770;52.158;5.372;2023-06-14T08:08:04;4.05;;;3.70;;
15340;SDS011;7770;52.158;5.372;2023-06-14T08:10:50;6.97;;;3.67;;
15340;SDS011;7770;52.158;5.372;2023-06-14T08:13:36;5.75;;;3.85;;
15340;SDS011;7770;52.158;5.372;2023-06-14T08:16:22;6.55;;;3.45;;
15340;SDS011;7770;52.158;5.372;2023-06-14T08:19:08;6.32;;;3.70;;
15340;SDS011;7770;52.158;5.372;2023-06-14T08:21:54;5.05;;;3.67;;
15340;SDS011;7770;52.158;5.372;2023-06-14T08:24:41;4.63;;;3.88;;
15340;SDS011;7770;52.158;5.372;2023-06-14T08:27:27;5.43;;;3.53;;
15340;SDS011;7770;52.158;5.372;2023-06-14T08:30:13;4.70;;;3.45;;
15340;SDS011;7770;52.158;5.372;2023-06-14T08:33:00;5.20;;;3.60;;
15340;SDS011;7770;52.158;5.372;2023-06-14T08:35:46;7.47;;;3.40;;
15340;SDS011;7770;52.158;5.372;2023-06-14T08:38:33;8.15;;;3.45;;
15340;SDS011;7770;52.158;5.372;2023-06-14T08:41:22;5.25;;;3.40;;
15340;SDS011;7770;52.158;5.372;2023-06-14T08:44:09;4.60;;;3.50;;
15340;SDS011;7770;52.158;5.372;2023-06-14T08:46:55;4.28;;;3.25;;
15340;SDS011;7770;52.158;5.372;2023-06-14T08:49:45;5.82;;;3.03;;
15340;SDS011;7770;52.158;5.372;2023-06-14T08:52:33;8.35;;;3.70;;
15340;SDS011;7770;52.158;5.372;2023-06-14T08:55:25;4.30;;;3.30;;
15340;SDS011;7770;52.158;5.372;2023-06-14T08:58:14;4.38;;;3.33;;
15340;SDS011;7770;52.158;5.372;2023-06-14T09:01:01;3.40;;;3.10;;
15340;SDS011;7770;52.158;5.372;2023-06-14T09:03:47;4.10;;;3.33;;
15340;SDS011;7770;52.158;5.372;2023-06-14T09:06:35;4.88;;;3.22;;
15340;SDS011;7770;52.158;5.372;2023-06-14T09:09:22;3.70;;;3.40;;
15340;SDS011;7770;52.158;5.372;2023-06-14T09:12:12;6.05;;;3.08;;
15340;SDS011;7770;52.158;5.372;2023-06-14T09:14:59;5.50;;;2.85;;
15340;SDS011;7770;52.158;5.372;2023-06-14T09:17:45;11.07;;;3.10;;
15340;SDS011;7770;52.158;5.372;2023-06-14T09:20:31;3.53;;;2.80;;
15340;SDS011;7770;52.158;5.372;2023-06-14T09:23:20;4.20;;;3.00;;
15340;SDS011;7770;52.158;5.372;2023-06-14T09:26:08;3.95;;;2.88;;
15340;SDS011;7770;52.158;5.372;2023-06-14T09:28:56;5.00;;;3.00;;
15340;SDS011;7770;52.158;5.372;2023-06-14T09:31:45;3.22;;;2.92;;
15340;SDS011;7770;52.158;5.372;2023-06-14T09:34:32;5.47;;;3.13;;
15340;SDS011;7770;52.158;5.372;2023-06-14T09:37:27;5.75;;;3.30;;
15340;SDS011;7770;52.158;5.372;2023-06-14T09:40:19;4.55;;;3.38;;
15340;SDS011;7770;52.158;5.372;2023-06-14T09:43:06;3.88;;;3.08;;
15340;SDS011;7770;52.158;5.372;2023-06-14T09:45:55;3.70;;;3.00;;
15340;SDS011;7770;52.158;5.372;2023-06-14T09:48:42;3.92;;;2.90;;
15340;SDS011;7770;52.158;5.372;2023-06-14T09:51:28;5.65;;;3.22;;
15340;SDS011;7770;52.158;5.372;2023-06-14T09:54:19;4.65;;;3.08;;
15340;SDS011;7770;52.158;5.372;2023-06-14T09:57:11;6.30;;;3.00;;
15340;SDS011;7770;52.158;5.372;2023-06-14T09:59:59;4.03;;;2.80;;
15340;SDS011;7770;52.158;5.372;2023-06-14T10:02:53;3.45;;;2.67;;
15340;SDS011;7770;52.158;5.372;2023-06-14T10:05:47;4.65;;;3.25;;
15340;SDS011;7770;52.158;5.372;2023-06-14T10:08:35;5.28;;;3.25;;
15340;SDS011;7770;52.158;5.372;2023-06-14T10:11:23;3.33;;;2.92;;
15340;SDS011;7770;52.158;5.372;2023-06-14T10:14:11;3.35;;;3.03;;
15340;SDS011;7770;52.158;5.372;2023-06-14T10:17:01;5.28;;;3.00;;
15340;SDS011;7770;52.158;5.372;2023-06-14T10:19:55;3.30;;;3.00;;
15340;SDS011;7770;52.158;5.372;2023-06-14T10:22:58;3.50;;;2.80;;
15340;SDS011;7770;52.158;5.372;2023-06-14T10:25:50;3.78;;;3.13;;
15340;SDS011;7770;52.158;5.372;2023-06-14T10:28:41;6.63;;;2.97;;
15340;SDS011;7770;52.158;5.372;2023-06-14T10:31:46;4.63;;;3.30;;
15340;SDS011;7770;52.158;5.372;2023-06-14T10:34:34;5.38;;;3.10;;
15340;SDS011;7770;52.158;5.372;2023-06-14T10:37:24;3.47;;;3.17;;
15340;SDS011;7770;52.158;5.372;2023-06-14T10:40:10;4.65;;;3.05;;
15340;SDS011;7770;52.158;5.372;2023-06-14T10:43:20;5.25;;;2.90;;
15340;SDS011;7770;52.158;5.372;2023-06-14T10:49:03;4.10;;;3.03;;
15340;SDS011;7770;52.158;5.372;2023-06-14T10:51:50;5.55;;;3.03;;
15340;SDS011;7770;52.158;5.372;2023-06-14T10:54:38;5.15;;;3.15;;
15340;SDS011;7770;52.158;5.372;2023-06-14T10:57:50;5.28;;;3.15;;
15340;SDS011;7770;52.158;5.372;2023-06-14T11:00:41;5.30;;;2.97;;
15340;SDS011;7770;52.158;5.372;2023-06-14T11:03:36;3.10;;;2.70;;
15340;SDS011;7770;52.158;5.372;2023-06-14T11:06:45;2.97;;;2.78;;
15340;SDS011;7770;52.158;5.372;2023-06-14T11:09:45;3.10;;;2.75;;
15340;SDS011;7770;52.158;5.372;2023-06-14T11:12:56;3.38;;;3.08;;
15340;SDS011;7770;52.158;5.372;2023-06-14T11:15:45;3.40;;;3.10;;
15340;SDS011;7770;52.158;5.372;2023-06-14T11:18:33;4.57;;;2.90;;
15340;SDS011;7770;52.158;5.372;2023-06-14T11:21:21;4.60;;;3.20;;
15340;SDS011;7770;52.158;5.372;2023-06-14T11:24:10;4.40;;;3.08;;
15340;SDS011;7770;52.158;5.372;2023-06-14T11:26:57;3.53;;;2.85;;
15340;SDS011;7770;52.158;5.372;2023-06-14T11:29:49;5.00;;;2.90;;
15340;SDS011;7770;52.158;5.372;2023-06-14T11:32:36;3.20;;;2.90;;
15340;SDS011;7770;52.158;5.372;2023-06-14T11:35:23;3.85;;;3.22;;
15340;SDS011;7770;52.158;5.372;2023-06-14T11:38:10;4.15;;;2.78;;
15340;SDS011;7770;52.158;5.372;2023-06-14T11:40:59;3.78;;;2.90;;
15340;SDS011;7770;52.158;5.372;2023-06-14T11:43:45;6.80;;;3.08;;
15340;SDS011;7770;52.158;5.372;2023-06-14T11:46:31;5.85;;;3.38;;
15340;SDS011;7770;52.158;5.372;2023-06-14T11:49:18;3.30;;;3.00;;
15340;SDS011;7770;52.158;5.372;2023-06-14T11:52:04;4.65;;;3.40;;
15340;SDS011;7770;52.158;5.372;2023-06-14T11:54:50;6.28;;;3.20;;
15340;SDS011;7770;52.158;5.372;2023-06-14T11:57:36;4.47;;;3.45;;
15340;SDS011;7770;52.158;5.372;2023-06-14T12:00:27;5.93;;;3.20;;
15340;SDS011;7770;52.158;5.372;2023-06-14T12:03:13;4.70;;;3.20;;
15340;SDS011;7770;52.158;5.372;2023-06-14T12:06:03;3.45;;;3.10;;
15340;SDS011;7770;52.158;5.372;2023-06-14T12:08:55;3.17;;;2.83;;
15340;SDS011;7770;52.158;5.372;2023-06-14T12:11:41;3.25;;;2.90;;
15340;SDS011;7770;52.158;5.372;2023-06-14T12:14:30;5.30;;;3.08;;
15340;SDS011;7770;52.158;5.372;2023-06-14T12:17:17;3.20;;;3.00;;
15340;SDS011;7770;52.158;5.372;2023-06-14T12:20:11;3.67;;;3.00;;
15340;SDS011;7770;52.158;5.372;2023-06-14T12:23:02;5.80;;;2.90;;
15340;SDS011;7770;52.158;5.372;2023-06-14T12:25:49;4.00;;;2.80;;
15340;SDS011;7770;52.158;5.372;2023-06-14T12:28:37;6.63;;;3.20;;
15340;SDS011;7770;52.158;5.372;2023-06-14T12:31:25;3.95;;;3.10;;
15340;SDS011;7770;52.158;5.372;2023-06-14T12:34:12;7.40;;;3.00;;
15340;SDS011;7770;52.158;5.372;2023-06-14T12:36:58;4.80;;;3.22;;
15340;SDS011;7770;52.158;5.372;2023-06-14T12:39:44;5.88;;;3.15;;
15340;SDS011;7770;52.158;5.372;2023-06-14T12:42:30;3.80;;;3.40;;
15340;SDS011;7770;52.158;5.372;2023-06-14T12:45:16;3.53;;;3.22;;
15340;SDS011;7770;52.158;5.372;2023-06-14T12:48:02;3.60;;;3.30;;
15340;SDS011;7770;52.158;5.372;2023-06-14T12:50:48;6.03;;;3.53;;
15340;SDS011;7770;52.158;5.372;2023-06-14T12:53:34;5.25;;;3.17;;
15340;SDS011;7770;52.158;5.372;2023-06-14T12:56:20;4.85;;;3.72;;
15340;SDS011;7770;52.158;5.372;2023-06-14T12:59:06;6.20;;;3.17;;
15340;SDS011;7770;52.158;5.372;2023-06-14T13:01:52;4.47;;;3.00;;
15340;SDS011;7770;52.158;5.372;2023-06-14T13:04:39;3.75;;;3.17;;
15340;SDS011;7770;52.158;5.372;2023-06-14T13:07:25;5.85;;;3.05;;
15340;SDS011;7770;52.158;5.372;2023-06-14T13:10:11;5.82;;;3.08;;
15340;SDS011;7770;52.158;5.372;2023-06-14T13:12:57;3.40;;;3.10;;
15340;SDS011;7770;52.158;5.372;2023-06-14T13:15:45;4.22;;;2.85;;
15340;SDS011;7770;52.158;5.372;2023-06-14T13:18:31;3.40;;;2.85;;
15340;SDS011;7770;52.158;5.372;2023-06-14T13:21:17;4.88;;;3.05;;
15340;SDS011;7770;52.158;5.372;2023-06-14T13:24:03;7.88;;;3.00;;
15340;SDS011;7770;52.158;5.372;2023-06-14T13:26:50;4.13;;;2.83;;
15340;SDS011;7770;52.158;5.372;2023-06-14T13:29:36;5.78;;;3.10;;
15340;SDS011;7770;52.158;5.372;2023-06-14T13:32:22;4.88;;;3.03;;
15340;SDS011;7770;52.158;5.372;2023-06-14T13:35:09;4.50;;;3.08;;
15340;SDS011;7770;52.158;5.372;2023-06-14T13:37:55;3.20;;;2.90;;
15340;SDS011;7770;52.158;5.372;2023-06-14T13:40:41;4.78;;;3.25;;
15340;SDS011;7770;52.158;5.372;2023-06-14T13:43:27;4.33;;;3.07;;
15340;SDS011;7770;52.158;5.372;2023-06-14T13:46:13;8.00;;;3.53;;
15340;SDS011;7770;52.158;5.372;2023-06-14T13:48:59;3.78;;;2.90;;
15340;SDS011;7770;52.158;5.372;2023-06-14T13:51:46;3.50;;;2.90;;
15340;SDS011;7770;52.158;5.372;2023-06-14T13:54:32;3.55;;;3.25;;
15340;SDS011;7770;52.158;5.372;2023-06-14T13:57:18;5.40;;;3.45;;
15340;SDS011;7770;52.158;5.372;2023-06-14T14:00:05;4.00;;;3.30;;
15340;SDS011;7770;52.158;5.372;2023-06-14T14:02:54;5.40;;;3.28;;
15340;SDS011;7770;52.158;5.372;2023-06-14T14:05:42;5.20;;;2.95;;
15340;SDS011;7770;52.158;5.372;2023-06-14T14:08:28;3.40;;;3.10;;
15340;SDS011;7770;52.158;5.372;2023-06-14T14:11:14;5.68;;;3.22;;
15340;SDS011;7770;52.158;5.372;2023-06-14T14:14:01;4.70;;;3.20;;
15340;SDS011;7770;52.158;5.372;2023-06-14T14:16:47;4.47;;;3.08;;
15340;SDS011;7770;52.158;5.372;2023-06-14T14:19:34;4.82;;;3.05;;
15340;SDS011;7770;52.158;5.372;2023-06-14T14:22:20;6.85;;;3.70;;
15340;SDS011;7770;52.158;5.372;2023-06-14T14:25:06;4.88;;;3.00;;
15340;SDS011;7770;52.158;5.372;2023-06-14T14:27:52;3.85;;;2.78;;
15340;SDS011;7770;52.158;5.372;2023-06-14T14:30:38;3.03;;;2.72;;
15340;SDS011;7770;52.158;5.372;2023-06-14T14:33:25;5.38;;;2.90;;
15340;SDS011;7770;52.158;5.372;2023-06-14T14:36:11;4.68;;;2.92;;
15340;SDS011;7770;52.158;5.372;2023-06-14T14:38:58;5.90;;;2.90;;
15340;SDS011;7770;52.158;5.372;2023-06-14T14:41:44;6.07;;;3.30;;
15340;SDS011;7770;52.158;5.372;2023-06-14T14:44:30;6.20;;;2.72;;
15340;SDS011;7770;52.158;5.372;2023-06-14T14:47:17;3.58;;;2.92;;
15340;SDS011;7770;52.158;5.372;2023-06-14T14:50:03;2.92;;;2.65;;
15340;SDS011;7770;52.158;5.372;2023-06-14T14:52:49;6.18;;;3.00;;
15340;SDS011;7770;52.158;5.372;2023-06-14T14:55:35;3.40;;;2.85;;
15340;SDS011;7770;52.158;5.372;2023-06-14T14:58:22;3.97;;;3.00;;
15340;SDS011;7770;52.158;5.372;2023-06-14T15:01:08;4.00;;;2.72;;
15340;SDS011;7770;52.158;5.372;2023-06-14T15:03:55;4.47;;;3.20;;
15340;SDS011;7770;52.158;5.372;2023-06-14T15:06:41;4.60;;;2.92;;
15340;SDS011;7770;52.158;5.372;2023-06-14T15:09:27;5.35;;;2.92;;
15340;SDS011;7770;52.158;5.372;2023-06-14T15:12:13;4.60;;;2.88;;
15340;SDS011;7770;52.158;5.372;2023-06-14T15:15:02;4.57;;;3.10;;
15340;SDS011;7770;52.158;5.372;2023-06-14T15:17:48;3.45;;;3.15;;
15340;SDS011;7770;52.158;5.372;2023-06-14T15:20:34;3.10;;;2.80;;
15340;SDS011;7770;52.158;5.372;2023-06-14T15:23:20;4.40;;;2.88;;
15340;SDS011;7770;52.158;5.372;2023-06-14T15:26:07;4.35;;;2.75;;
15340;SDS011;7770;52.158;5.372;2023-06-14T15:28:53;2.72;;;2.53;;
15340;SDS011;7770;52.158;5.372;2023-06-14T15:31:39;2.90;;;2.60;;
15340;SDS011;7770;52.158;5.372;2023-06-14T15:34:25;3.28;;;2.78;;
15340;SDS011;7770;52.158;5.372;2023-06-14T15:37:11;4.70;;;2.88;;
15340;SDS011;7770;52.158;5.372;2023-06-14T15:39:57;4.45;;;2.60;;
15340;SDS011;7770;52.158;5.372;2023-06-14T15:42:43;3.58;;;2.92;;
15340;SDS011;7770;52.158;5.372;2023-06-14T15:45:29;2.90;;;2.70;;
15340;SDS011;7770;52.158;5.372;2023-06-14T15:48:16;3.50;;;2.90;;
15340;SDS011;7770;52.158;5.372;2023-06-14T15:51:02;3.75;;;2.70;;
15340;SDS011;7770;52.158;5.372;2023-06-14T15:53:48;3.45;;;2.65;;
15340;SDS011;7770;52.158;5.372;2023-06-14T15:56:34;6.45;;;2.80;;
15340;SDS011;7770;52.158;5.372;2023-06-14T15:59:20;5.07;;;2.90;;
15340;SDS011;7770;52.158;5.372;2023-06-14T16:02:06;4.88;;;3.00;;
15340;SDS011;7770;52.158;5.372;2023-06-14T16:04:52;4.13;;;3.00;;
15340;SDS011;7770;52.158;5.372;2023-06-14T16:07:38;3.08;;;2.78;;
15340;SDS011;7770;52.158;5.372;2023-06-14T16:10:24;5.72;;;3.10;;
15340;SDS011;7770;52.158;5.372;2023-06-14T16:13:12;3.08;;;2.70;;
15340;SDS011;7770;52.158;5.372;2023-06-14T16:15:58;4.00;;;2.92;;
15340;SDS011;7770;52.158;5.372;2023-06-14T16:18:44;5.20;;;2.90;;
15340;SDS011;7770;52.158;5.372;2023-06-14T16:21:30;3.45;;;3.15;;
15340;SDS011;7770;52.158;5.372;2023-06-14T16:24:21;3.88;;;3.25;;
15340;SDS011;7770;52.158;5.372;2023-06-14T16:27:07;3.20;;;2.90;;
15340;SDS011;7770;52.158;5.372;2023-06-14T16:29:54;3.50;;;3.20;;
15340;SDS011;7770;52.158;5.372;2023-06-14T16:32:40;4.38;;;3.30;;
15340;SDS011;7770;52.158;5.372;2023-06-14T16:35:26;4.75;;;3.20;;
15340;SDS011;7770;52.158;5.372;2023-06-14T16:38:12;4.85;;;3.13;;
15340;SDS011;7770;52.158;5.372;2023-06-14T16:40:58;3.40;;;2.80;;
15340;SDS011;7770;52.158;5.372;2023-06-14T16:43:45;3.88;;;3.30;;
15340;SDS011;7770;52.158;5.372;2023-06-14T16:46:31;5.40;;;3.00;;
15340;SDS011;7770;52.158;5.372;2023-06-14T16:49:19;5.32;;;3.30;;
15340;SDS011;7770;52.158;5.372;2023-06-14T16:52:05;3.67;;;2.90;;
15340;SDS011;7770;52.158;5.372;2023-06-14T16:54:51;4.73;;;3.17;;
15340;SDS011;7770;52.158;5.372;2023-06-14T16:57:37;7.60;;;3.28;;
15340;SDS011;7770;52.158;5.372;2023-06-14T17:00:24;3.57;;;2.90;;
15340;SDS011;7770;52.158;5.372;2023-06-14T17:03:11;4.47;;;2.90;;
15340;SDS011;7770;52.158;5.372;2023-06-14T17:05:57;4.13;;;3.00;;
15340;SDS011;7770;52.158;5.372;2023-06-14T17:08:44;6.33;;;3.07;;
15340;SDS011;7770;52.158;5.372;2023-06-14T17:11:30;4.60;;;3.27;;